Metar Aviation Weather Data YSDU Dubbo City Regional

6°C Temp
-1°C Dewpoint
61% Humidity
Temperature
2 KM/H
1 MPH
1 KTS
140°
South East

Wind Speed
Clear
Conditions
Pressure 1020 (hPa) - 30.12 (in)
Visibility 6.2 (mi) - 10 (km)

Current Conditions
YSDU
Dubbo City Regional
Metar :YSDU 181200Z AUTO 14001KT 9999 // NCD 06/M01 Q1020
Wed 18th July 22:00 pm

Dubbo City Regional
  Metar Aviation API Data Provided by https://www.checkwx.com/ PHP scripts by weather34.com ©2018